Marquette, Kansas
Current Conditions -  °F | °C
As of 7:53 AM on Friday 31 Oct 2014 (Local Time) from KSLN Reporting Station
Broken Clouds Broken Clouds  
Wind Chill: 28°   Ceiling: 2400
Heat Index: 36°   Visibility: 10mi
Dew Point: 26°   Wind: 13mph
Humidity: 67%   Direction: 20°NNE
Pressure: 30.51"   Gusts: 22mph
Location:  38.56°N, 97.83°W
Report Text: KSLN 311253Z 02011G19KT 10SM BKN024 02/M03 A3051 RMK AO2 SLP337 T00221033
Loading
Personal Weather Stations






























Interactive Weather Map
Tropical Storm Tracking
New forecast layout! Learn more

10-Day Weather Forecast

Advertisements
Track Severe Weather on mobile